AirNav   Everest Fuels
 
 608 users online  

SC86 Williamsport Airpark
Easley, South Carolina, USA

GOING TO EASLEY?


FAA INFORMATION EFFECTIVE 16 JUNE 2022

Location

FAA Identifier: SC86
Lat/Long: 34-51-42.8650N 082-34-52.8800W
34-51.714417N 082-34.881333W
34.8619069,-82.5813556
(estimated)
Elevation: 1100 ft. / 335 m (estimated)
Variation: 04W (1990)
From city: 2 miles SW of EASLEY, SC
Time zone: UTC -4 (UTC -5 during Standard Time)
Zip code: 29640

Airport Operations

Airport use: Private use. Permission required prior to landing
Activation date: 04/1993
Control tower: no
ARTCC: ATLANTA CENTER
FSS: ANDERSON FLIGHT SERVICE STATION
Attendance: UNATNDD
Wind indicator: yes
Segmented circle: no
Landing fee: yes

Airport Communications

WX AWOS-3 at LQK (7 nm SW): 120.0 (864-843-5801)
WX ASOS at GMU (11 nm E): 127.075 (864-239-0014)
WX AWOS-3 at GYH (12 nm SE): 127.325 (864-277-5674)
WX ASOS at GSP (18 nm E): 134.25 (864-879-0614)
WX ASOS at CEU (19 nm SW): 119.275 (864-653-8855)

Nearby radio navigation aids

VOR radial/distance  VOR name  Freq  Var
ELWr021/28.4ELECTRIC CITY VORTAC108.6000E
SPAr254/33.8SPARTANBURG VORTAC115.7002W
SUGr207/36.1SUGARLOAF MOUNTAIN VORTAC112.2002W
ODFr074/36.7FOOTHILLS VOR/DME113.4000E

 
NDB name  Hdg/Dist  Freq  Var  ID
DYANA330/12.333804WGY --. -.--
JUDKY298/12.452105WGM --. --
BROAD RIVER199/25.237907WBRA -... .-. .-

Airport Services

Runway Information

Runway 15/33

Dimensions: 2380 x 75 ft. / 725 x 23 m
Surface: turf, in good condition
RUNWAY 15  RUNWAY 33
Latitude: 34-51.886333N34-51.542500N
Longitude: 082-34.996000W082-34.766667W
Elevation: 1090.0 ft.1084.0 ft.
Traffic pattern: leftleft
Obstructions: 25 ft. trees, 1700 ft. from runway35 ft. trees, 1500 ft. from runway

Airport Ownership and Management from official FAA records

Ownership: Privately-owned
Owner: WILLIAMSPORT PROPERTY OWNERS INC
P O BOX 962
EASLEY, SC 29641
Phone 864-238-6990
Manager: M. JACQUELINE WOHN, PRES
P O BOX 962
EASLEY, SC 29641
Phone 864-238-6990
KEITH KENNEDY, VP

Airport Operational Statistics

Aircraft based on the field: 15
Single engine airplanes: 14
Multi engine airplanes: 1
    

Additional Remarks

AIR -TO-AIR FREQUENCY - 122.75 MHZ
FOR CD CTC ATLANTA ARTCC AT 770-210-7692.

Instrument Procedures

There are no published instrument procedures at SC86.

Some nearby airports with instrument procedures:

KLQK - Pickens County Airport (7 nm SW)
KGMU - Greenville Downtown Airport (11 nm E)
KGYH - Donaldson Field Airport (12 nm SE)
KGSP - Greenville Spartanburg International Airport (18 nm E)
KCEU - Oconee County Regional Airport (19 nm SW)
 
Loc | Ops | Rwys | IFR | FBO | Links
Com | Nav | Svcs | Stats | Notes
Area around SC86 (Williamsport Airpark)
 
Road maps at: MapQuest Bing Google
 
Aerial photo
WARNING: Photo may not be current or correct
Aerial photo of SC86 (Williamsport Airpark)
Photo by AirNav, LLC
Photo taken 22-Oct-2010
from the southeast from a Mooney at 9,000 feet.

Do you have a better or more recent aerial photo of Williamsport Airpark that you would like to share? If so, please send us your photo.

 
Sectional chart

 
Airport distance calculator
Flying to Williamsport Airpark? Find the distance to fly.

From to SC86

Sunrise and sunset
Times for 05-Jul-2022
 Local
(UTC-4)
 Zulu
(UTC)
Morning civil twilight05:5409:54
Sunrise06:2310:23
Sunset20:4600:46
Evening civil twilight21:1601:16

Current date and time
Zulu (UTC)  05-Jul-2022 07:26:10
Local (UTC-4)  05-Jul-2022 03:26:10
 
METAR
KLQK 
7nm SW 
050715Z AUTO 00000KT 3SM BR SCT038 SCT047 23/23 A3013 RMK AO2 T02320230
KGMU 
11nm E 
050653Z AUTO 12003KT 10SM FEW024 26/21 A3015 RMK AO2 SLP195 T02560211
KGYH 
12nm SE 
050715Z AUTO 00000KT 10SM SCT060 24/22 A3014 RMK A02 T02380215
KGSP 
18nm E 
050653Z 14003KT 10SM SCT033 24/22 A3014 RMK AO2 SLP193 T02440217
KCEU 
19nm SW 
050654Z AUTO 00000KT 10SM BKN042 24/23 A3013 RMK AO2 SLP191 T02440233
TAF
KGMU 
11nm E 
050538Z 0506/0606 16005KT P6SM VCSH SCT025 BKN060 FM050900 VRB02KT P6SM BKN015 TEMPO 0509/0512 4SM BR BKN007 FM051300 VRB03KT P6SM BKN025 FM051400 23005KT P6SM BKN045 FM051800 22007KT P6SM SCT050 BKN200 PROB30 0521/0601 4SM TSRA BR BKN040CB FM060200 24003KT P6SM SCT060 BKN120
KGSP 
18nm E 
050538Z 0506/0606 17005KT P6SM VCSH SCT020 BKN050 FM050900 VRB02KT P6SM BKN015 TEMPO 0510/0512 5SM BR BKN007 FM051300 VRB03KT P6SM BKN025 FM051400 23005KT P6SM BKN040 FM051800 21007KT P6SM SCT050 BKN200 PROB30 0521/0601 4SM TSRA BR BKN040CB FM060200 23003KT P6SM SCT060 BKN120
NOTAMs
Click for the latest NOTAMs
NOTAMs are issued by the DoD/FAA and will open in a separate window not controlled by AirNav.

 

 
 

Would you like to see your business listed on this page?

 If your business provides an interesting product or service to pilots, flight crews, aircraft, or users of the Williamsport Airpark, you should consider listing it here.  To start the listing process, click on the button below
 
Add a business
 

Other Pages about Williamsport Airpark

Update a link
 
Copyright © AirNav, LLC. All rights reserved. Privacy Policy  Contact